View Data : List Evapotranspiration (ETo ) Reports


 
Search Evapotranspiration Reports
Station Fields:
Location:
Date Range:
Start Date:   End Date:
Searched: Report date on 5/25/2019.
Showing 1 - 50 of 84 Records. <Back  Page   Next>
DateTimeStation NumberStation NameGaugeReadingRefill LevelEvap AmtView
5/25/2019  12:00 AM  MN-AA-5  East Bethel 3.1 NE 1.36  0.04   
5/25/2019  5:00 AM  IN-OW-9  Spencer 7.0 S 3.90  0.11   
5/25/2019  5:00 AM  NY-CQ-22  Fredonia 0.8 WNW 2.30  0.10   
5/25/2019  5:22 AM  MO-CP-7  Boonville 0.5 ESE 5.47  0.16   
5/25/2019  5:30 AM  IN-TN-1  Atlanta 4.4 W 2.70  0.10   
5/25/2019  6:00 AM  CA-SJ-5  Lodi 1.0 NNW 6.85  0.15   
5/25/2019  6:00 AM  IN-PT-12  Valparaiso 4.3 SW 0.68  0.05   
5/25/2019  6:00 AM  IA-LN-7  Central City 6.7 W 3.25  0.06   
5/25/2019  6:00 AM  NH-CS-7  Lancaster 0.5 N 0.65  0.05   
5/25/2019  6:00 AM  TN-MA-3  Jasper 1.7 N 8.68  0.17   
5/25/2019  6:15 AM  VA-HV-8  Montpelier 4.8 E 2.09  0.16   
5/25/2019  6:20 AM  TX-KN-118  Boerne 1.6 E 2.18  0.17   
5/25/2019  6:20 AM  WA-SJ-28  Lopez Island 3.9 NNE 4.44  0.02   
5/25/2019  6:30 AM  IL-WN-2  Roscoe 1.6 ESE 2.38  0.05   
5/25/2019  6:50 AM  PA-CD-6  Mechanicsburg 1.0 NNW 2.30  0.10   
5/25/2019  6:50 AM  WI-MC-4  Two Rivers 1.4 N 1.57  0.02   
5/25/2019  6:56 AM  NJ-MN-64  Howell Twp 3.7 SSW 4.00  0.14   
5/25/2019  7:00 AM  AZ-PN-50  Saddlebrooke 1.5 SW 1.30  0.22   
5/25/2019  7:00 AM  CA-HM-5  Mckinleyville 7.3 ESE 2.85  0.05   
5/25/2019  7:00 AM  CA-SD-12  Poway 3.2NE 7.00  0.10   
5/25/2019  7:00 AM  CA-SD-132  Descanso 3.7N 9.00  0.09   
5/25/2019  7:00 AM  CO-EP-24  Black Forest 2.1 SSE 0.55  0.08   
5/25/2019  7:00 AM  CO-GF-47  Carbondale 0.5 W 3.28  0.16   
5/25/2019  7:00 AM  CO-LR-623  Fort Collins 6.1 SW 0.14  0.08   
5/25/2019  7:00 AM  CO-LG-6  Sterling 3.7 NNE 0.05  0.01   
5/25/2019  7:00 AM  FL-MR-66  The Villages 3.7 NNW 8.13  0.20   
5/25/2019  7:00 AM  GA-FY-28  Fayetteville 2.1 NNE 6.70  0.17   
5/25/2019  7:00 AM  IL-CP-1  Homer 2.0 N 2.00  0.13   
5/25/2019  7:00 AM  IL-GY-1  Carbon Hill 3.1 N 2.70  0.09   
5/25/2019  7:00 AM  IN-HR-5  Milltown 5.7 SSE 4.90  0.19   
5/25/2019  7:00 AM  IN-MR-13  Speedway 6.2 SSW 3.45  0.19   
5/25/2019  7:00 AM  IN-PT-133  Valparaiso 2.2 WNW 3.99  0.20   
5/25/2019  7:00 AM  IA-TY-2  New Market 4.7 N 3.60  0.09   
5/25/2019  7:00 AM  KS-SG-111  Wichita 5.9 WSW 1.94  0.01   
5/25/2019  7:00 AM  KY-FR-1  Frankfort 3.3 NE 6.05  0.20   
5/25/2019  7:00 AM  KY-ME-8  Harrodsburg 10.8 NW 1.92  0.15   
5/25/2019  7:00 AM  ME-LN-1  Newcastle 2.1 SW 1.30  0.03   
5/25/2019  7:00 AM  MD-HR-23  Norrisville 0.6 WSW 4.79  0.17   
5/25/2019  7:00 AM  MI-BN-3  Buchanan 1.4 ESE 2.78  0.05   
5/25/2019  7:00 AM  MI-KN-14  Grandville 1.3 WSW 0.68  0.01   
5/25/2019  7:00 AM  MN-SL-74  Duluth 1.5 NNW 0.50  0.00   
5/25/2019  7:00 AM  MT-SW-2  Columbus 7.2 E 1.33  0.03   
5/25/2019  7:00 AM  NV-WH-2  Reno 1.4 NNE 4.68  0.16   
5/25/2019  7:00 AM  NH-CH-21  Keene 2.0 SE 0.73  0.06   
5/25/2019  7:00 AM  NM-BR-183  Sandia Park 3.6 ESE 5.82  0.20   
5/25/2019  7:00 AM  NM-SF-70  Santa Fe 10.5 S 1.70  0.21   
5/25/2019  7:00 AM  NY-WY-10  Wyoming COOP 0.87  0.07   
5/25/2019  7:00 AM  NY-WY-11  Silver Springs COOP 1.45  0.10   
5/25/2019  7:00 AM  ND-CS-1  West Fargo 3.8 SSE 3.14  0.05   
5/25/2019  7:00 AM  OH-DR-1  Bradford 2.3 NW 2.50  0.10